createdAt,value
2018-11-27T00:00:36.153Z,-0.27
2018-11-27T00:03:06.031Z,-0.30
2018-11-27T00:05:34.622Z,-0.31
2018-11-27T00:08:02.293Z,-0.33
2018-11-27T00:10:30.999Z,-0.42
2018-11-27T00:13:02.164Z,-0.44
2018-11-27T00:15:29.743Z,-0.46
2018-11-27T00:17:57.287Z,-0.47
2018-11-27T00:20:24.775Z,-0.50
2018-11-27T00:22:52.219Z,-0.58
2018-11-27T00:25:19.547Z,-0.61
2018-11-27T00:27:47.072Z,-0.63
2018-11-27T00:30:16.012Z,-0.65
2018-11-27T00:32:43.388Z,-0.61
2018-11-27T00:35:11.771Z,-0.71
2018-11-27T00:37:39.124Z,-0.65
2018-11-27T00:40:13.011Z,-0.58
2018-11-27T00:42:40.335Z,-0.68
2018-11-27T00:45:09.340Z,-0.71
2018-11-27T00:47:36.715Z,-0.79
2018-11-27T00:50:12.656Z,-0.84
2018-11-27T00:52:40.047Z,-0.85
2018-11-27T00:55:08.949Z,-0.78
2018-11-27T00:57:36.463Z,-0.79
2018-11-27T01:00:06.700Z,-0.82
2018-11-27T01:02:33.944Z,-0.83
2018-11-27T01:05:01.151Z,-0.89
2018-11-27T01:07:28.434Z,-0.92
2018-11-27T01:09:55.720Z,-0.91
2018-11-27T01:12:23.067Z,-0.86
2018-11-27T01:14:50.406Z,-0.96
2018-11-27T01:17:17.753Z,-1.06
2018-11-27T01:19:45.107Z,-1.07
2018-11-27T01:22:12.485Z,-1.07
2018-11-27T01:24:39.803Z,-1.08
2018-11-27T01:27:07.153Z,-1.15
2018-11-27T01:29:34.469Z,-1.10
2018-11-27T01:32:01.801Z,-1.05
2018-11-27T01:34:29.101Z,-1.16
2018-11-27T01:36:56.472Z,-1.19
2018-11-27T01:39:23.799Z,-1.21
2018-11-27T01:41:51.098Z,-1.26
2018-11-27T01:44:18.532Z,-1.25
2018-11-27T01:46:45.844Z,-1.28
2018-11-27T01:49:13.099Z,-1.34
2018-11-27T01:51:40.530Z,-1.40
2018-11-27T01:54:13.116Z,-1.33
2018-11-27T01:56:40.557Z,-1.35
2018-11-27T01:59:07.964Z,-1.36
2018-11-27T02:01:35.305Z,-1.41
2018-11-27T02:04:02.871Z,-1.47
2018-11-27T02:06:30.329Z,-1.50
2018-11-27T02:08:57.851Z,-1.53
2018-11-27T02:11:25.339Z,-1.45
2018-11-27T02:13:52.785Z,-1.46
2018-11-27T02:16:20.293Z,-1.49
2018-11-27T02:18:47.767Z,-1.48
2018-11-27T02:21:15.822Z,-1.44
2018-11-27T02:23:45.347Z,-1.43
2018-11-27T02:26:12.735Z,-1.44
2018-11-27T02:28:40.174Z,-1.45
2018-11-27T02:31:07.536Z,-1.54
2018-11-27T02:33:35.015Z,-1.58
2018-11-27T02:36:02.481Z,-1.59
2018-11-27T02:38:29.948Z,-1.63
2018-11-27T02:40:57.347Z,-1.58
2018-11-27T02:43:24.723Z,-1.60
2018-11-27T02:45:52.197Z,-1.62
2018-11-27T02:48:19.560Z,-1.67
2018-11-27T02:50:46.971Z,-1.69
2018-11-27T02:53:14.323Z,-1.69
2018-11-27T02:55:42.737Z,-1.68
2018-11-27T02:58:10.159Z,-1.68
2018-11-27T03:00:37.502Z,-1.62
2018-11-27T03:03:05.530Z,-1.63
2018-11-27T03:05:35.173Z,-1.69
2018-11-27T03:08:02.749Z,-1.70
2018-11-27T03:10:30.180Z,-1.68
2018-11-27T03:12:57.537Z,-1.72
2018-11-27T03:15:24.880Z,-1.72
2018-11-27T03:17:52.304Z,-1.75
2018-11-27T03:20:19.668Z,-1.65
2018-11-27T03:22:46.988Z,-1.67
2018-11-27T03:25:19.357Z,-1.68
2018-11-27T03:27:47.608Z,-1.71
2018-11-27T03:30:16.897Z,-1.79
2018-11-27T03:32:44.343Z,-1.73
2018-11-27T03:35:14.353Z,-1.75
2018-11-27T03:37:41.843Z,-1.74
2018-11-27T03:40:15.244Z,-1.80
2018-11-27T03:42:42.685Z,-1.77
2018-11-27T03:45:11.247Z,-1.78
2018-11-27T03:47:38.683Z,-1.74
2018-11-27T03:50:16.812Z,-1.63
2018-11-27T03:52:44.165Z,-1.67
2018-11-27T03:55:12.145Z,-1.79
2018-11-27T03:57:39.394Z,-1.80
2018-11-27T04:00:14.203Z,-1.76
2018-11-27T04:02:41.681Z,-1.79
2018-11-27T04:05:10.150Z,-1.82
2018-11-27T04:07:37.522Z,-1.82
2018-11-27T04:10:10.116Z,-1.84
2018-11-27T04:12:37.446Z,-1.92
2018-11-27T04:15:05.239Z,-1.87
2018-11-27T04:17:32.589Z,-1.88
2018-11-27T04:19:59.966Z,-1.89
2018-11-27T04:22:27.254Z,-1.90
2018-11-27T04:24:54.629Z,-1.90
2018-11-27T04:27:21.978Z,-1.95
2018-11-27T04:29:49.399Z,-1.98
2018-11-27T04:32:16.657Z,-1.94
2018-11-27T04:34:44.008Z,-1.98
2018-11-27T04:37:11.356Z,-2.01
2018-11-27T04:39:38.620Z,-2.04
2018-11-27T04:42:05.928Z,-2.08
2018-11-27T04:44:33.208Z,-2.04
2018-11-27T04:47:00.604Z,-2.14
2018-11-27T04:49:27.980Z,-2.18
2018-11-27T04:51:55.193Z,-2.05
2018-11-27T04:54:22.486Z,-2.03
2018-11-27T04:56:49.748Z,-2.13
2018-11-27T04:59:17.021Z,-2.11
2018-11-27T05:01:46.256Z,-2.08
2018-11-27T05:04:17.372Z,-2.09
2018-11-27T05:06:44.850Z,-2.16
2018-11-27T05:09:12.221Z,-2.16
2018-11-27T05:11:39.509Z,-2.22
2018-11-27T05:14:06.892Z,-2.13
2018-11-27T05:16:34.115Z,-2.23
2018-11-27T05:19:05.133Z,-2.28
2018-11-27T05:21:32.451Z,-2.23
2018-11-27T05:23:59.763Z,-2.27
2018-11-27T05:26:27.045Z,-2.23
2018-11-27T05:28:54.593Z,-2.27
2018-11-27T05:31:21.865Z,-2.24
2018-11-27T05:33:49.179Z,-2.29
2018-11-27T05:36:17.444Z,-2.25
2018-11-27T05:38:45.688Z,-2.26
2018-11-27T05:41:13.072Z,-2.29
2018-11-27T05:43:40.339Z,-2.36
2018-11-27T05:46:07.690Z,-2.29
2018-11-27T05:48:35.824Z,-2.32
2018-11-27T05:51:03.289Z,-2.40
2018-11-27T05:53:30.544Z,-2.36
2018-11-27T05:55:57.795Z,-2.40
2018-11-27T05:58:25.063Z,-2.34
2018-11-27T06:00:52.401Z,-2.40
2018-11-27T06:03:19.779Z,-2.38
2018-11-27T06:05:47.214Z,-2.44
2018-11-27T06:08:14.519Z,-2.39
2018-11-27T06:10:41.853Z,-2.38
2018-11-27T06:13:09.187Z,-2.49
2018-11-27T06:15:36.509Z,-2.54
2018-11-27T06:18:04.019Z,-2.47
2018-11-27T06:20:31.399Z,-2.54
2018-11-27T06:22:59.279Z,-2.55
2018-11-27T06:25:28.032Z,-2.58
2018-11-27T06:27:58.166Z,-2.59
2018-11-27T06:30:27.912Z,-2.62
2018-11-27T06:32:55.288Z,-2.62
2018-11-27T06:35:27.791Z,-2.65
2018-11-27T06:37:55.162Z,-2.67
2018-11-27T06:40:24.214Z,-2.63
2018-11-27T06:42:52.033Z,-2.61
2018-11-27T06:45:20.042Z,-2.56
2018-11-27T06:47:48.523Z,-2.54
2018-11-27T06:50:17.069Z,-2.56
2018-11-27T06:52:44.871Z,-2.65
2018-11-27T06:55:15.547Z,-2.61
2018-11-27T06:57:43.427Z,-2.56
2018-11-27T07:00:18.967Z,-2.59
2018-11-27T07:02:46.679Z,-2.49
2018-11-27T07:05:14.559Z,-2.35
2018-11-27T07:07:42.140Z,-2.35
2018-11-27T07:10:16.692Z,-2.30
2018-11-27T07:12:44.151Z,-2.32
2018-11-27T07:15:14.595Z,-2.21
2018-11-27T07:17:41.975Z,-2.28
2018-11-27T07:20:10.607Z,-2.18
2018-11-27T07:22:41.039Z,-2.11
2018-11-27T07:25:10.924Z,-2.04
2018-11-27T07:27:38.323Z,-1.98
2018-11-27T07:30:09.799Z,-1.85
2018-11-27T07:32:37.117Z,-1.77
2018-11-27T07:35:06.057Z,-1.69
2018-11-27T07:37:33.589Z,-1.60
2018-11-27T07:40:03.459Z,-1.45
2018-11-27T07:42:30.943Z,-1.38
2018-11-27T07:44:58.392Z,-1.35
2018-11-27T07:47:26.546Z,-1.35
2018-11-27T07:49:54.201Z,-1.26
2018-11-27T07:52:21.680Z,-1.17
2018-11-27T07:54:49.737Z,-1.04
2018-11-27T07:57:20.984Z,-0.95
2018-11-27T07:59:50.055Z,-0.89
2018-11-27T08:02:18.601Z,-0.91
2018-11-27T08:04:48.605Z,-0.79
2018-11-27T08:07:16.255Z,-0.70
2018-11-27T08:09:46.926Z,-0.65
2018-11-27T08:12:14.709Z,-0.63
2018-11-27T08:14:42.479Z,-0.68
2018-11-27T08:17:10.457Z,-0.54
2018-11-27T08:19:37.703Z,-0.55
2018-11-27T08:22:05.551Z,-0.48
2018-11-27T08:24:32.755Z,-0.40
2018-11-27T08:27:00.100Z,-0.42
2018-11-27T08:29:28.886Z,-0.36
2018-11-27T08:31:56.335Z,-0.64
2018-11-27T08:34:27.725Z,-0.35
2018-11-27T08:36:55.279Z,-0.46
2018-11-27T08:39:23.552Z,-0.36
2018-11-27T08:41:51.340Z,-0.40
2018-11-27T08:44:18.744Z,-0.20
2018-11-27T08:46:47.380Z,-0.13
2018-11-27T08:49:22.418Z,-0.07
2018-11-27T08:51:50.368Z,-0.01
2018-11-27T08:54:17.635Z,0.11
2018-11-27T08:56:44.985Z,-0.05
2018-11-27T08:59:12.185Z,0.26
2018-11-27T09:01:39.407Z,0.22
2018-11-27T09:04:06.860Z,0.28
2018-11-27T09:06:34.073Z,0.32
2018-11-27T09:09:01.334Z,0.31
2018-11-27T09:11:28.607Z,0.53
2018-11-27T09:13:56.950Z,0.57
2018-11-27T09:16:24.331Z,0.62
2018-11-27T09:18:51.807Z,0.79
2018-11-27T09:21:19.104Z,0.90
2018-11-27T09:23:46.341Z,1.05
2018-11-27T09:26:13.603Z,1.13
2018-11-27T09:28:40.952Z,1.03
2018-11-27T09:31:08.182Z,0.87
2018-11-27T09:33:35.530Z,1.01
2018-11-27T09:36:02.787Z,0.64
2018-11-27T09:38:30.124Z,0.90
2018-11-27T09:40:57.536Z,1.10
2018-11-27T09:43:26.239Z,0.84
2018-11-27T09:45:53.444Z,1.10
2018-11-27T09:48:20.781Z,1.09
2018-11-27T09:50:47.967Z,1.33
2018-11-27T09:53:15.535Z,0.79
2018-11-27T09:55:42.760Z,1.32
2018-11-27T09:58:09.944Z,1.45
2018-11-27T10:00:37.165Z,1.61
2018-11-27T10:03:09.113Z,1.33
2018-11-27T10:05:36.487Z,1.18
2018-11-27T10:08:04.551Z,0.97
2018-11-27T10:10:31.890Z,0.86
2018-11-27T10:12:59.156Z,1.17
2018-11-27T10:15:27.348Z,1.21
2018-11-27T10:17:55.877Z,1.32
2018-11-27T10:20:24.830Z,1.48
2018-11-27T10:22:52.144Z,1.41
2018-11-27T10:25:19.418Z,1.28
2018-11-27T10:27:46.671Z,1.64
2018-11-27T10:30:17.113Z,1.39
2018-11-27T10:32:44.539Z,1.58
2018-11-27T10:35:17.484Z,1.82
2018-11-27T10:37:44.891Z,1.44
2018-11-27T10:40:12.260Z,1.77
2018-11-27T10:42:39.557Z,1.82
2018-11-27T10:45:09.531Z,2.07
2018-11-27T10:47:36.753Z,1.88
2018-11-27T10:50:06.947Z,2.19
2018-11-27T10:52:36.595Z,2.04
2018-11-27T10:55:04.953Z,2.15
2018-11-27T10:57:32.135Z,2.01
2018-11-27T10:59:59.385Z,1.84
2018-11-27T11:02:34.753Z,1.96
2018-11-27T11:05:03.193Z,1.77
2018-11-27T11:07:30.384Z,1.83
2018-11-27T11:09:57.624Z,2.23
2018-11-27T11:12:26.032Z,1.98
2018-11-27T11:14:53.468Z,1.82
2018-11-27T11:17:20.736Z,1.81
2018-11-27T11:19:48.055Z,2.07
2018-11-27T11:22:15.368Z,2.19
2018-11-27T11:24:43.375Z,2.30
2018-11-27T11:27:15.333Z,2.56
2018-11-27T11:29:58.982Z,2.58
2018-11-27T11:38:51.343Z,2.64
2018-11-27T11:41:19.562Z,2.86
2018-11-27T11:43:46.982Z,2.84
2018-11-27T11:46:14.519Z,2.69
2018-11-27T11:48:41.780Z,2.53
2018-11-27T11:51:09.124Z,3.00
2018-11-27T11:53:36.604Z,3.28
2018-11-27T11:56:04.237Z,3.38
2018-11-27T11:58:33.770Z,3.34
2018-11-27T12:01:01.407Z,3.48
2018-11-27T12:03:32.295Z,3.30
2018-11-27T12:06:10.283Z,3.00
2018-11-27T12:08:43.099Z,3.26
2018-11-27T12:11:10.760Z,2.91
2018-11-27T12:13:38.032Z,3.04
2018-11-27T12:16:05.335Z,2.95
2018-11-27T12:18:32.586Z,3.24
2018-11-27T12:20:59.806Z,3.47
2018-11-27T12:23:27.044Z,3.49
2018-11-27T12:25:54.502Z,3.48
2018-11-27T12:28:21.735Z,3.38
2018-11-27T12:30:48.901Z,3.25
2018-11-27T12:33:16.166Z,3.57
2018-11-27T12:35:43.935Z,3.53
2018-11-27T12:38:11.618Z,3.20
2018-11-27T12:40:38.978Z,3.36
2018-11-27T12:43:06.303Z,3.07
2018-11-27T12:45:33.545Z,3.16
2018-11-27T12:48:01.852Z,3.27
2018-11-27T12:50:37.563Z,3.11
2018-11-27T12:53:06.266Z,3.30
2018-11-27T12:55:33.912Z,3.38
2018-11-27T12:58:01.120Z,3.38
2018-11-27T13:00:28.498Z,3.26
2018-11-27T13:02:57.479Z,3.18
2018-11-27T13:05:28.373Z,3.15
2018-11-27T13:07:57.794Z,3.26
2018-11-27T13:10:25.044Z,3.18
2018-11-27T13:12:52.338Z,3.11
2018-11-27T13:15:20.263Z,3.02
2018-11-27T13:17:48.751Z,3.14
2018-11-27T13:20:17.011Z,3.21
2018-11-27T13:22:44.330Z,3.18
2018-11-27T13:25:14.980Z,3.04
2018-11-27T13:27:42.984Z,3.17
2018-11-27T13:30:13.585Z,2.99
2018-11-27T13:32:42.712Z,2.84
2018-11-27T13:35:11.334Z,2.98
2018-11-27T13:37:38.587Z,2.82
2018-11-27T13:40:07.455Z,2.89
2018-11-27T13:42:34.663Z,2.85
2018-11-27T13:45:02.174Z,2.91
2018-11-27T13:47:29.403Z,2.88
2018-11-27T13:49:56.531Z,2.85
2018-11-27T13:52:23.650Z,2.82
2018-11-27T13:54:50.906Z,2.72
2018-11-27T13:57:18.080Z,2.73
2018-11-27T13:59:45.201Z,2.64
2018-11-27T14:02:12.430Z,2.55
2018-11-27T14:04:39.561Z,2.43
2018-11-27T14:07:06.734Z,2.55
2018-11-27T14:09:33.995Z,2.53
2018-11-27T14:12:01.158Z,2.23
2018-11-27T14:14:28.286Z,2.31
2018-11-27T14:16:55.541Z,2.35
2018-11-27T14:19:22.706Z,2.32
2018-11-27T14:21:49.833Z,2.22
2018-11-27T14:24:17.038Z,2.32
2018-11-27T14:26:44.289Z,2.16
2018-11-27T14:29:11.416Z,2.24
2018-11-27T14:31:38.588Z,2.14
2018-11-27T14:34:05.729Z,1.95
2018-11-27T14:36:32.863Z,1.98
2018-11-27T14:39:00.059Z,2.07
2018-11-27T14:41:27.185Z,2.03
2018-11-27T14:43:54.315Z,1.79
2018-11-27T14:46:21.479Z,1.98
2018-11-27T14:48:48.592Z,1.86
2018-11-27T14:51:15.710Z,1.84
2018-11-27T14:53:42.899Z,1.71
2018-11-27T14:56:10.027Z,1.82
2018-11-27T14:58:37.172Z,1.73
2018-11-27T15:01:05.130Z,1.70
2018-11-27T15:03:32.252Z,1.79
2018-11-27T15:05:59.399Z,1.81
2018-11-27T15:08:26.592Z,1.79
2018-11-27T15:10:53.743Z,1.82
2018-11-27T15:13:20.875Z,1.77
2018-11-27T15:15:48.053Z,1.78
2018-11-27T15:18:15.316Z,1.70
2018-11-27T15:20:42.446Z,1.74
2018-11-27T15:23:09.634Z,1.74
2018-11-27T15:25:36.774Z,1.83
2018-11-27T15:28:04.067Z,1.58
2018-11-27T15:30:34.810Z,1.52
2018-11-27T15:33:01.931Z,1.66
2018-11-27T15:35:29.077Z,1.64
2018-11-27T15:37:56.267Z,1.68
2018-11-27T15:40:26.339Z,1.63
2018-11-27T15:42:53.556Z,1.78
2018-11-27T15:45:21.870Z,1.67
2018-11-27T15:47:49.144Z,1.68
2018-11-27T15:50:16.315Z,1.70
2018-11-27T15:52:43.535Z,1.67
2018-11-27T15:55:28.565Z,1.63
2018-11-27T15:58:16.230Z,1.75
2018-11-27T16:00:43.698Z,1.61
2018-11-27T16:03:10.926Z,1.44
2018-11-27T16:05:38.819Z,1.52
2018-11-27T16:08:06.962Z,1.63
2018-11-27T16:10:34.110Z,1.47
2018-11-27T16:13:01.286Z,1.54
2018-11-27T16:15:28.414Z,1.54
2018-11-27T16:17:55.550Z,1.49
2018-11-27T16:20:22.732Z,1.55
2018-11-27T16:22:50.992Z,1.51
2018-11-27T16:25:20.311Z,1.54
2018-11-27T16:27:47.510Z,1.53
2018-11-27T16:30:16.726Z,1.56
2018-11-27T16:32:43.886Z,1.57
2018-11-27T16:35:11.935Z,1.41
2018-11-27T16:37:39.317Z,1.36
2018-11-27T16:40:11.307Z,1.44
2018-11-27T16:42:38.493Z,1.46
2018-11-27T16:45:08.018Z,1.52
2018-11-27T16:47:35.250Z,1.54
2018-11-27T16:50:02.404Z,1.51
2018-11-27T16:52:29.598Z,1.26
2018-11-27T16:54:56.780Z,1.45
2018-11-27T16:57:23.988Z,1.19
2018-11-27T16:59:51.128Z,1.37
2018-11-27T17:02:18.394Z,1.47
2018-11-27T17:04:45.503Z,1.58
2018-11-27T17:07:12.642Z,1.50
2018-11-27T17:09:39.875Z,1.43
2018-11-27T17:12:07.007Z,1.55
2018-11-27T17:14:34.194Z,1.47
2018-11-27T17:17:01.380Z,1.50
2018-11-27T17:19:28.620Z,1.47
2018-11-27T17:21:55.739Z,1.55
2018-11-27T17:24:22.955Z,1.56
2018-11-27T17:26:50.195Z,1.57
2018-11-27T17:29:17.347Z,1.60
2018-11-27T17:31:44.545Z,1.10
2018-11-27T17:34:13.472Z,1.37
2018-11-27T17:36:40.660Z,1.41
2018-11-27T17:39:10.067Z,1.47
2018-11-27T17:41:37.215Z,1.50
2018-11-27T17:44:05.545Z,1.56
2018-11-27T17:46:32.776Z,1.51
2018-11-27T17:48:59.904Z,1.54
2018-11-27T17:51:27.031Z,1.37
2018-11-27T17:53:54.346Z,1.52
2018-11-27T17:56:21.528Z,1.58
2018-11-27T17:58:48.651Z,1.60
2018-11-27T18:01:15.880Z,1.48
2018-11-27T18:03:43.035Z,1.52
2018-11-27T18:06:10.191Z,1.61
2018-11-27T18:08:37.373Z,1.52
2018-11-27T18:11:04.600Z,1.47
2018-11-27T18:13:31.722Z,1.36
2018-11-27T18:15:58.922Z,1.09
2018-11-27T18:18:26.055Z,1.25
2018-11-27T18:20:53.213Z,1.33
2018-11-27T18:23:20.394Z,1.37
2018-11-27T18:25:47.547Z,1.13
2018-11-27T18:28:14.826Z,1.24
2018-11-27T18:30:42.022Z,1.33
2018-11-27T18:33:09.169Z,1.39
2018-11-27T18:35:36.315Z,1.44
2018-11-27T18:38:03.522Z,1.44
2018-11-27T18:40:30.799Z,1.45
2018-11-27T18:42:57.959Z,1.24
2018-11-27T18:45:27.522Z,1.23
2018-11-27T18:47:54.755Z,1.30
2018-11-27T18:50:22.902Z,1.38
2018-11-27T18:52:50.092Z,1.39
2018-11-27T18:55:17.279Z,1.32
2018-11-27T18:57:45.213Z,1.40
2018-11-27T19:00:17.592Z,1.47
2018-11-27T19:02:44.819Z,1.41
2018-11-27T19:05:11.998Z,1.45
2018-11-27T19:07:39.215Z,1.24
2018-11-27T19:10:12.655Z,1.42
2018-11-27T19:12:39.959Z,1.40
2018-11-27T19:15:11.647Z,1.56
2018-11-27T19:17:38.775Z,1.52
2018-11-27T19:20:09.346Z,1.51
2018-11-27T19:22:36.472Z,1.49
2018-11-27T19:25:04.416Z,1.34
2018-11-27T19:27:31.703Z,1.44
2018-11-27T19:29:58.932Z,1.42
2018-11-27T19:32:26.087Z,1.42
2018-11-27T19:34:53.372Z,1.40
2018-11-27T19:37:20.619Z,1.41
2018-11-27T19:39:47.876Z,1.34
2018-11-27T19:42:16.049Z,1.42
2018-11-27T19:44:43.271Z,1.46
2018-11-27T19:47:10.465Z,1.37
2018-11-27T19:49:37.858Z,1.40
2018-11-27T19:52:05.064Z,1.40
2018-11-27T19:54:32.191Z,1.47
2018-11-27T19:56:59.603Z,1.42
2018-11-27T19:59:26.842Z,1.39
2018-11-27T20:01:54.385Z,1.43
2018-11-27T20:04:21.615Z,1.43
2018-11-27T20:06:48.771Z,1.48
2018-11-27T20:09:16.050Z,1.48
2018-11-27T20:11:43.268Z,1.42
2018-11-27T20:14:10.415Z,1.48
2018-11-27T20:16:37.579Z,1.51
2018-11-27T20:19:05.296Z,1.50
2018-11-27T20:21:32.548Z,1.56
2018-11-27T20:23:59.695Z,1.52
2018-11-27T20:26:26.940Z,1.52
2018-11-27T20:28:54.103Z,1.56
2018-11-27T20:31:21.240Z,1.53
2018-11-27T20:33:48.512Z,1.47
2018-11-27T20:36:15.708Z,1.39
2018-11-27T20:38:42.856Z,1.45
2018-11-27T20:41:10.091Z,1.54
2018-11-27T20:43:37.231Z,1.59
2018-11-27T20:46:04.817Z,1.63
2018-11-27T20:48:32.123Z,1.51
2018-11-27T20:50:59.291Z,1.52
2018-11-27T20:53:26.572Z,1.55
2018-11-27T20:55:53.819Z,1.54
2018-11-27T20:58:20.976Z,1.50
2018-11-27T21:00:49.651Z,1.43
2018-11-27T21:03:16.955Z,1.48
2018-11-27T21:05:44.140Z,1.56
2018-11-27T21:08:11.286Z,1.42
2018-11-27T21:10:38.845Z,1.46
2018-11-27T21:13:07.063Z,1.58
2018-11-27T21:15:34.322Z,1.62
2018-11-27T21:18:01.541Z,1.60
2018-11-27T21:20:28.696Z,1.50
2018-11-27T21:22:55.847Z,1.51
2018-11-27T21:25:24.098Z,1.49
2018-11-27T21:27:55.435Z,1.47
2018-11-27T21:30:22.602Z,1.53
2018-11-27T21:32:49.838Z,1.52
2018-11-27T21:35:17.142Z,1.43
2018-11-27T21:37:44.345Z,1.48
2018-11-27T21:40:14.576Z,1.33
2018-11-27T21:42:41.712Z,1.40
2018-11-27T21:45:11.284Z,1.36
2018-11-27T21:47:38.534Z,1.41
2018-11-27T21:50:08.045Z,1.39
2018-11-27T21:52:35.219Z,1.49
2018-11-27T21:55:02.422Z,1.46
2018-11-27T21:57:29.553Z,1.49
2018-11-27T21:59:56.687Z,1.46
2018-11-27T22:02:23.879Z,1.43
2018-11-27T22:04:51.081Z,1.39
2018-11-27T22:07:18.226Z,1.40
2018-11-27T22:09:45.510Z,1.54
2018-11-27T22:12:12.657Z,1.39
2018-11-27T22:14:39.792Z,1.47
2018-11-27T22:17:07.004Z,1.38
2018-11-27T22:19:34.163Z,1.43
2018-11-27T22:22:01.402Z,1.53
2018-11-27T22:24:28.603Z,1.51
2018-11-27T22:26:55.771Z,1.44
2018-11-27T22:29:22.902Z,1.45
2018-11-27T22:31:50.087Z,1.50
2018-11-27T22:34:17.259Z,1.49
2018-11-27T22:36:44.416Z,1.46
2018-11-27T22:39:11.659Z,1.47
2018-11-27T22:41:38.811Z,1.43
2018-11-27T22:44:06.039Z,1.44
2018-11-27T22:46:33.243Z,1.49
2018-11-27T22:49:00.470Z,1.49
2018-11-27T22:51:27.619Z,1.62
2018-11-27T22:53:54.822Z,1.53
2018-11-27T22:56:22.007Z,1.54
2018-11-27T22:58:49.147Z,1.56
2018-11-27T23:01:16.383Z,1.49
2018-11-27T23:03:43.546Z,1.45
2018-11-27T23:06:11.072Z,1.49
2018-11-27T23:08:38.264Z,1.63
2018-11-27T23:11:05.523Z,1.65
2018-11-27T23:13:32.720Z,1.57
2018-11-27T23:15:59.911Z,1.47
2018-11-27T23:18:27.187Z,1.47
2018-11-27T23:20:54.319Z,1.48
2018-11-27T23:23:21.531Z,1.52
2018-11-27T23:25:48.683Z,1.45
2018-11-27T23:28:15.904Z,1.52
2018-11-27T23:30:43.092Z,1.49
2018-11-27T23:33:10.286Z,1.56
2018-11-27T23:35:37.439Z,1.49
2018-11-27T23:38:04.666Z,1.48
2018-11-27T23:40:31.811Z,1.44
2018-11-27T23:42:59.439Z,1.54
2018-11-27T23:45:26.627Z,1.54
2018-11-27T23:47:53.799Z,1.48
2018-11-27T23:50:21.745Z,1.38
2018-11-27T23:52:49.030Z,1.50
2018-11-27T23:55:17.026Z,1.48
2018-11-27T23:57:44.715Z,1.44
